Time;durP1;ratioP1;P1;durP2;ratioP2;P2;SDS_P1;SDS_P2;PMS_P1;PMS_P2;Temp;Humidity;BMP_temperature;BMP_pressure;BME280_temperature;BME280_humidity;BME280_pressure;Samples;Min_cycle;Max_cycle;Signal;HPM_P1;HPM_P2
2021/07/31 00:01:40;;;;;;;6.00;5.40;;;21.10;63.10;;;20.44;65.80;97302.53;4973480;28;20791;-75
2021/07/31 00:04:07;;;;;;;6.50;5.90;;;21.10;63.10;;;20.42;65.97;97310.22;4956473;28;21011;-74
2021/07/31 00:06:37;;;;;;;6.00;5.50;;;21.10;63.20;;;20.34;66.34;97309.78;4967472;28;21329;-76
2021/07/31 00:09:04;;;;;;;6.93;6.33;;;21.10;63.40;;;20.37;66.37;97309.19;4959992;28;20473;-75
2021/07/31 00:11:31;;;;;;;6.70;6.00;;;21.00;63.50;;;20.33;67.68;97304.59;4963369;28;20466;-74
2021/07/31 00:13:58;;;;;;;9.43;6.43;;;21.00;64.60;;;20.28;68.53;97300.00;4967427;28;21346;-74
2021/07/31 00:16:26;;;;;;;7.70;5.43;;;21.00;65.30;;;20.29;68.48;97312.59;4963237;28;20985;-75
2021/07/31 00:18:54;;;;;;;11.13;6.20;;;21.00;65.40;;;20.22;68.45;97315.72;4970998;28;20449;-74
2021/07/31 00:21:22;;;;;;;6.30;5.70;;;21.00;65.70;;;20.21;68.40;97311.34;4968801;28;20449;-76
2021/07/31 00:23:48;;;;;;;6.00;5.60;;;20.90;65.70;;;20.29;68.11;97312.59;4970743;28;20457;-74
2021/07/31 00:26:16;;;;;;;6.83;6.10;;;20.90;65.40;;;20.16;68.34;97308.66;4970759;28;20453;-74
2021/07/31 00:28:42;;;;;;;6.70;6.10;;;20.90;65.60;;;20.16;68.52;97313.34;4971084;28;20475;-75
2021/07/31 00:31:09;;;;;;;13.60;6.63;;;20.80;65.80;;;20.12;68.56;97320.53;4968880;28;20992;-77
2021/07/31 00:33:38;;;;;;;7.30;6.60;;;20.80;65.90;;;20.14;68.46;97310.88;4967650;28;20465;-76
2021/07/31 00:36:05;;;;;;;6.67;6.17;;;20.80;65.90;;;20.16;68.17;97313.34;4965889;28;20475;-78
2021/07/31 00:38:32;;;;;;;7.17;6.57;;;20.80;65.90;;;20.18;68.44;97316.59;4970975;28;20545;-75
2021/07/31 00:40:59;;;;;;;6.97;6.30;;;20.80;65.90;;;20.09;68.81;97314.53;4967422;28;20526;-76
2021/07/31 00:43:26;;;;;;;6.63;6.13;;;20.80;66.20;;;20.01;69.00;97306.94;4968405;28;20463;-78
2021/07/31 00:45:53;;;;;;;6.90;6.30;;;20.80;66.40;;;20.09;68.73;97319.19;4970014;28;20461;-76
2021/07/31 00:48:20;;;;;;;7.50;6.80;;;20.80;66.50;;;20.11;68.51;97319.69;4961419;28;20451;-79
2021/07/31 00:50:49;;;;;;;7.70;6.87;;;20.80;66.50;;;20.04;68.76;97328.28;4964555;28;20458;-76
2021/07/31 00:53:16;;;;;;;6.67;6.13;;;20.70;66.50;;;20.00;68.75;97327.25;4961895;28;20445;-78
2021/07/31 00:55:43;;;;;;;7.30;6.70;;;20.70;66.40;;;19.93;68.35;97322.13;4968610;28;20481;-76
2021/07/31 00:58:11;;;;;;;7.70;7.00;;;20.70;66.30;;;19.92;68.55;97330.63;4972397;28;20455;-77
2021/07/31 01:00:38;;;;;;;9.20;6.60;;;20.70;66.30;;;19.94;68.67;97328.41;4970957;28;20957;-76
2021/07/31 01:03:04;;;;;;;8.67;7.20;;;20.60;66.30;;;19.82;68.22;97318.69;4982591;28;20472;-78
2021/07/31 01:05:31;;;;;;;7.63;6.90;;;20.60;66.20;;;19.90;68.15;97333.66;4981513;28;20778;-76
2021/07/31 01:08:00;;;;;;;7.83;7.13;;;20.60;66.20;;;19.95;68.01;97338.28;4976909;28;21114;-79
2021/07/31 01:10:27;;;;;;;7.07;6.23;;;20.60;66.10;;;19.87;67.92;97327.94;4968811;28;20460;-77
2021/07/31 01:12:55;;;;;;;7.80;7.20;;;20.60;66.10;;;19.82;68.08;97342.50;4963155;28;20444;-78
2021/07/31 01:15:23;;;;;;;7.47;6.83;;;20.60;66.10;;;19.80;67.76;97334.59;4982278;28;20456;-76
2021/07/31 01:17:50;;;;;;;8.03;6.70;;;20.50;66.00;;;19.77;67.91;97345.31;4972063;28;20484;-76
2021/07/31 01:20:17;;;;;;;7.23;6.53;;;20.50;65.70;;;19.73;67.81;97336.06;4993313;28;20482;-76
2021/07/31 01:22:46;;;;;;;7.03;6.30;;;20.40;65.70;;;19.72;67.11;97335.22;4989009;28;20452;-77
2021/07/31 01:25:13;;;;;;;6.97;6.27;;;20.40;65.20;;;19.65;67.21;97321.88;4979460;28;21032;-76
2021/07/31 01:27:41;;;;;;;7.20;6.60;;;20.40;65.20;;;19.70;66.80;97340.19;4978963;28;20452;-77
2021/07/31 01:30:10;;;;;;;6.37;5.87;;;20.40;64.80;;;19.61;65.22;97325.50;4970442;28;20484;-76
2021/07/31 01:32:37;;;;;;;8.43;5.87;;;20.40;63.50;;;19.66;65.09;97339.16;4964760;28;20493;-80
2021/07/31 01:35:05;;;;;;;5.70;5.30;;;20.40;63.40;;;19.69;64.25;97344.03;4981666;28;20445;-78
2021/07/31 01:37:31;;;;;;;5.77;5.30;;;20.40;62.80;;;19.66;63.96;97350.13;4970290;28;20473;-75
2021/07/31 01:40:00;;;;;;;5.77;5.30;;;20.40;62.40;;;19.73;63.87;97350.56;4957875;28;20449;-78
2021/07/31 01:42:27;;;;;;;6.90;5.27;;;20.40;62.30;;;19.67;63.47;97352.53;4969389;28;20932;-78
2021/07/31 01:44:54;;;;;;;5.37;4.87;;;20.40;62.00;;;19.59;63.37;97349.63;4967380;28;20466;-78
2021/07/31 01:47:21;;;;;;;5.40;4.90;;;20.40;61.80;;;19.65;62.84;97352.03;4968082;28;20454;-77
2021/07/31 01:49:48;;;;;;;5.00;4.47;;;20.40;61.60;;;19.65;62.74;97356.69;4970396;28;20455;-77
2021/07/31 01:52:15;;;;;;;5.90;5.13;;;20.40;61.30;;;19.56;62.80;97344.72;4972446;28;20553;-77
2021/07/31 01:54:43;;;;;;;5.67;5.13;;;20.30;61.00;;;19.56;63.02;97356.50;4967788;28;20450;-80
2021/07/31 01:57:11;;;;;;;4.83;4.43;;;20.30;61.40;;;19.58;62.74;97357.03;4971585;28;20461;-78
2021/07/31 01:59:38;;;;;;;5.50;5.00;;;20.30;61.40;;;19.39;62.76;97346.81;4965202;28;20445;-77
2021/07/31 02:02:05;;;;;;;4.93;4.43;;;20.20;61.00;;;19.42;62.55;97348.16;4968283;28;21159;-75
2021/07/31 02:04:33;;;;;;;4.63;4.33;;;20.20;61.00;;;19.34;62.58;97346.06;4966980;28;20790;-76
2021/07/31 02:07:01;;;;;;;6.00;4.70;;;20.10;60.70;;;19.29;63.59;97346.09;4970893;28;20481;-75
2021/07/31 02:09:28;;;;;;;5.90;4.67;;;20.00;61.10;;;19.21;63.42;97351.13;4953458;28;20460;-75
2021/07/31 02:11:55;;;;;;;4.73;4.27;;;19.90;61.00;;;19.07;63.42;97350.16;4973563;28;20450;-75
2021/07/31 02:14:23;;;;;;;4.83;4.40;;;19.80;61.20;;;19.04;63.97;97359.75;4972872;28;20467;-74
2021/07/31 02:16:50;;;;;;;5.17;4.53;;;19.80;61.40;;;18.96;63.88;97361.16;4976439;28;20465;-75
2021/07/31 02:19:17;;;;;;;4.17;3.77;;;19.70;61.30;;;18.89;63.42;97359.84;4976476;28;20460;-75
2021/07/31 02:21:44;;;;;;;8.77;4.90;;;19.60;61.10;;;18.88;63.83;97358.19;4991511;28;20459;-75
2021/07/31 02:24:11;;;;;;;6.30;4.37;;;19.60;61.70;;;18.73;63.19;97356.38;4975031;28;20469;-75
2021/07/31 02:26:38;;;;;;;4.40;4.00;;;19.50;60.60;;;18.64;63.54;97357.00;4975524;28;20448;-74
2021/07/31 02:29:05;;;;;;;5.00;4.10;;;19.40;60.80;;;18.56;64.33;97352.13;4974783;28;20445;-77
2021/07/31 02:31:33;;;;;;;4.47;4.07;;;19.30;61.10;;;18.56;63.84;97360.34;4978080;28;20556;-75
2021/07/31 02:34:00;;;;;;;4.53;4.13;;;19.30;61.10;;;18.52;64.55;97359.28;4975825;28;20445;-75
2021/07/31 02:36:27;;;;;;;4.73;4.27;;;19.20;61.40;;;18.46;64.17;97365.88;4971860;28;20648;-75
2021/07/31 02:38:54;;;;;;;5.10;4.10;;;19.20;61.20;;;18.39;65.50;97361.53;4970193;28;20553;-74
2021/07/31 02:41:21;;;;;;;4.20;3.47;;;19.10;61.60;;;18.29;65.16;97363.53;4980162;28;20933;-79
2021/07/31 02:43:48;;;;;;;4.53;3.87;;;19.00;61.50;;;18.19;65.27;97356.19;4978901;28;20814;-74
2021/07/31 02:46:15;;;;;;;4.80;3.60;;;18.90;61.80;;;18.07;65.85;97364.72;4972079;28;20842;-76
2021/07/31 02:48:43;;;;;;;4.10;3.80;;;18.80;61.70;;;17.95;66.26;97354.06;4972781;28;20467;-76
2021/07/31 02:51:13;;;;;;;4.60;4.07;;;18.70;62.10;;;17.91;66.71;97356.56;4972402;28;20456;-75
2021/07/31 02:53:40;;;;;;;6.43;4.23;;;18.60;62.40;;;17.77;67.20;97339.13;4970966;28;21048;-74
2021/07/31 02:56:09;;;;;;;6.70;3.90;;;18.60;62.70;;;17.69;67.13;97340.53;4963759;28;20476;-77
2021/07/31 02:58:36;;;;;;;4.17;3.87;;;18.50;62.70;;;17.69;67.35;97356.91;4968391;28;20831;-75
2021/07/31 03:01:04;;;;;;;3.83;3.53;;;18.40;62.80;;;17.66;66.98;97358.28;4970211;28;20537;-74
2021/07/31 03:03:31;;;;;;;4.73;4.10;;;18.40;62.70;;;17.67;67.16;97350.91;4961987;28;20450;-74
2021/07/31 03:06:01;;;;;;;4.13;3.73;;;18.40;62.80;;;17.71;67.27;97354.72;4967143;28;20445;-76
2021/07/31 03:08:28;;;;;;;6.70;4.10;;;18.50;62.90;;;17.60;67.61;97348.47;4965587;28;20453;-76
2021/07/31 03:10:58;;;;;;;4.40;4.00;;;18.40;63.00;;;17.55;67.69;97346.59;4972485;28;20449;-74
2021/07/31 03:13:25;;;;;;;5.10;3.57;;;18.30;63.00;;;17.55;67.96;97357.50;4967310;28;20494;-74
2021/07/31 03:15:53;;;;;;;4.70;4.30;;;18.20;63.50;;;17.45;68.40;97364.91;4979299;28;20475;-74
2021/07/31 03:18:20;;;;;;;5.07;4.10;;;18.20;63.50;;;17.30;68.79;97360.28;4972086;28;20476;-76
2021/07/31 03:20:49;;;;;;;5.20;4.43;;;18.10;63.80;;;17.33;68.50;97362.44;4969069;28;20540;-74
2021/07/31 03:23:19;;;;;;;4.40;3.50;;;18.00;63.80;;;17.33;68.40;97365.19;4970151;28;20429;-77
2021/07/31 03:25:47;;;;;;;4.10;3.50;;;18.00;63.60;;;17.32;68.67;97369.84;4980089;28;20464;-75
2021/07/31 03:28:15;;;;;;;5.80;3.80;;;18.00;63.80;;;17.23;68.59;97372.31;4982312;28;21109;-75
2021/07/31 03:30:43;;;;;;;5.60;4.23;;;18.00;63.90;;;17.18;69.05;97375.03;4976730;28;20477;-75
2021/07/31 03:33:10;;;;;;;6.47;4.00;;;17.90;64.10;;;17.33;68.85;97373.38;4977144;28;20453;-74
2021/07/31 03:35:38;;;;;;;6.50;3.63;;;17.90;64.40;;;17.21;69.44;97373.66;4972892;28;20456;-76
2021/07/31 03:38:05;;;;;;;4.70;4.30;;;17.90;64.50;;;17.16;69.33;97373.69;4975547;28;20473;-75
2021/07/31 03:40:34;;;;;;;5.77;4.40;;;17.90;64.60;;;17.19;69.71;97376.66;4974589;28;20449;-75
2021/07/31 03:43:02;;;;;;;4.10;3.70;;;17.80;64.90;;;17.12;69.45;97373.41;4973803;28;20453;-75
2021/07/31 03:45:29;;;;;;;3.83;3.53;;;17.80;64.60;;;17.02;69.26;97376.97;4969582;28;20465;-75
2021/07/31 03:47:56;;;;;;;5.60;3.70;;;17.80;64.50;;;16.96;69.63;97378.00;4978993;28;20540;-75
2021/07/31 03:50:23;;;;;;;4.27;3.90;;;17.80;64.60;;;16.91;69.82;97387.03;4979706;28;20965;-75
2021/07/31 03:52:50;;;;;;;4.40;4.00;;;17.70;64.80;;;16.81;69.83;97376.91;4976838;28;20453;-76
2021/07/31 03:55:17;;;;;;;4.43;3.93;;;17.60;65.00;;;16.80;70.84;97379.91;4978966;28;20509;-76
2021/07/31 03:57:45;;;;;;;4.40;4.10;;;17.60;65.60;;;16.81;70.63;97384.28;4986946;28;20532;-75
2021/07/31 04:00:13;;;;;;;6.70;3.70;;;17.50;66.10;;;16.76;70.27;97367.94;4986836;28;20520;-76
2021/07/31 04:02:40;;;;;;;3.70;3.40;;;17.60;65.80;;;16.81;70.36;97392.47;4958859;28;20454;-75
2021/07/31 04:05:08;;;;;;;4.67;4.27;;;17.60;65.50;;;16.84;69.88;97381.00;4965790;28;20537;-75
2021/07/31 04:07:36;;;;;;;3.90;3.60;;;17.60;65.50;;;17.08;69.13;97380.50;4960580;28;20462;-75
2021/07/31 04:10:04;;;;;;;4.30;3.87;;;17.90;64.90;;;17.32;67.60;97388.94;4969965;28;20473;-75
2021/07/31 04:12:31;;;;;;;3.43;3.13;;;18.40;63.00;;;17.47;66.69;97387.28;4970055;28;20433;-75
2021/07/31 04:14:59;;;;;;;4.40;3.47;;;18.70;62.20;;;17.52;66.96;97390.00;4975708;28;20462;-75
2021/07/31 04:17:26;;;;;;;4.10;2.90;;;18.70;61.80;;;17.47;66.50;97387.28;4963569;28;20470;-75
2021/07/31 04:19:53;;;;;;;3.20;3.00;;;18.60;61.80;;;17.37;66.88;97383.47;4968558;28;20457;-75
2021/07/31 04:22:20;;;;;;;4.13;3.07;;;18.40;61.90;;;17.25;66.70;97386.50;4965270;28;20499;-75
2021/07/31 04:24:47;;;;;;;3.50;3.10;;;18.20;61.90;;;17.27;65.99;97387.03;4956046;28;20450;-76
2021/07/31 04:27:14;;;;;;;3.40;2.50;;;18.20;61.90;;;17.23;66.68;97388.69;4973484;28;20461;-77
2021/07/31 04:29:41;;;;;;;4.83;2.50;;;18.10;61.90;;;17.46;65.21;97391.91;4961593;28;20975;-75
2021/07/31 04:32:10;;;;;;;3.03;2.80;;;18.50;61.30;;;17.48;64.52;97381.53;4973906;28;20544;-76
2021/07/31 04:34:37;;;;;;;4.60;2.93;;;18.70;60.30;;;17.51;65.53;97397.38;4957964;28;20467;-76
2021/07/31 04:37:04;;;;;;;3.87;3.27;;;18.60;60.90;;;17.45;64.98;97397.66;4968598;28;20820;-75
2021/07/31 04:39:32;;;;;;;3.60;2.97;;;18.50;61.00;;;17.36;65.74;97402.84;4974364;28;20457;-76
2021/07/31 04:41:59;;;;;;;4.20;3.80;;;18.30;61.50;;;17.37;65.39;97404.50;4963859;28;20974;-76
2021/07/31 04:44:28;;;;;;;5.20;3.40;;;18.30;61.30;;;17.66;64.35;97401.16;4966640;28;20460;-75
2021/07/31 04:46:55;;;;;;;4.00;3.60;;;18.90;60.20;;;18.23;62.39;97407.28;4972742;28;20450;-76
2021/07/31 04:49:23;;;;;;;6.00;3.00;;;19.80;59.10;;;18.66;60.74;97373.16;4977796;28;20488;-75
2021/07/31 04:51:50;;;;;;;4.23;3.00;;;21.00;57.50;;;19.26;58.95;97413.22;4976619;28;20452;-76
2021/07/31 04:54:17;;;;;;;3.93;2.83;;;21.80;55.80;;;19.93;57.78;97411.75;4968399;28;20979;-76
2021/07/31 04:56:44;;;;;;;2.97;2.53;;;22.60;55.20;;;20.35;55.77;97404.66;4968259;28;20485;-75
2021/07/31 04:59:11;;;;;;;5.47;2.90;;;23.30;53.90;;;20.47;56.00;97408.91;4977247;28;20469;-76
2021/07/31 05:01:38;;;;;;;2.97;2.43;;;23.70;53.50;;;20.72;55.34;97406.94;4977018;28;20463;-77
2021/07/31 05:04:05;;;;;;;4.10;3.07;;;24.10;52.90;;;20.69;54.34;97402.00;4977180;28;20479;-75
2021/07/31 05:06:33;;;;;;;3.60;2.33;;;24.00;52.70;;;20.93;53.36;97380.81;4975893;28;20865;-75
2021/07/31 05:09:00;;;;;;;3.23;2.67;;;24.20;52.50;;;21.22;53.46;97407.25;4969447;28;20472;-75
2021/07/31 05:11:27;;;;;;;3.03;2.40;;;24.40;52.30;;;21.29;52.96;97406.03;4973773;28;20457;-74
2021/07/31 05:13:54;;;;;;;2.27;2.07;;;24.80;52.00;;;21.53;52.69;97405.91;4973895;28;20548;-74
2021/07/31 05:16:21;;;;;;;5.17;2.60;;;24.90;51.80;;;20.95;53.05;97405.22;4982961;28;20460;-75
2021/07/31 05:18:48;;;;;;;3.50;2.80;;;24.60;51.30;;;21.15;52.98;97403.25;4948327;28;20469;-76
2021/07/31 05:21:15;;;;;;;4.70;2.70;;;24.50;51.60;;;20.66;53.53;97397.94;4970542;28;20453;-77
2021/07/31 05:23:43;;;;;;;3.43;2.47;;;24.10;51.20;;;20.97;52.99;97408.50;4975233;28;20450;-74
2021/07/31 05:26:10;;;;;;;3.63;2.70;;;24.10;51.40;;;21.19;52.28;97404.28;4975461;28;20848;-74
2021/07/31 05:28:37;;;;;;;2.90;2.07;;;24.40;51.00;;;20.81;52.09;97410.66;4964370;28;20547;-76
2021/07/31 05:31:05;;;;;;;4.67;2.50;;;24.10;50.60;;;20.73;53.18;97392.09;4969438;28;20477;-74
2021/07/31 05:33:32;;;;;;;3.70;2.33;;;23.90;51.30;;;21.13;52.00;97400.81;4973375;28;20518;-75
2021/07/31 05:35:59;;;;;;;3.53;1.90;;;24.30;51.20;;;20.62;51.72;97405.94;4968911;28;20540;-75
2021/07/31 05:38:26;;;;;;;3.33;2.37;;;23.60;50.50;;;20.85;52.03;97408.97;4980310;28;20612;-76
2021/07/31 05:40:55;;;;;;;4.47;2.53;;;23.60;51.40;;;20.63;51.36;97387.56;4969397;28;20528;-75
2021/07/31 05:43:22;;;;;;;2.50;2.30;;;23.50;50.80;;;20.62;52.03;97407.88;4971818;28;20558;-74
2021/07/31 05:45:49;;;;;;;4.03;2.30;;;23.30;51.10;;;21.21;51.46;97413.88;4978107;28;20449;-75
2021/07/31 05:48:16;;;;;;;3.87;1.90;;;23.90;51.40;;;21.22;51.26;97414.66;4959360;28;20461;-76
2021/07/31 05:50:43;;;;;;;2.63;1.93;;;24.10;50.80;;;20.73;51.24;97422.28;4966208;28;20460;-75
2021/07/31 05:53:10;;;;;;;3.23;2.10;;;23.30;51.20;;;21.15;50.82;97415.06;4958156;28;20452;-76
2021/07/31 05:55:37;;;;;;;6.00;2.70;;;23.60;51.20;;;21.31;49.94;97418.38;4964125;28;20549;-77
2021/07/31 05:58:06;;;;;;;2.77;2.57;;;23.90;50.60;;;21.33;49.83;97426.31;4963231;28;20575;-76
2021/07/31 06:00:34;;;;;;;3.77;2.13;;;23.90;50.70;;;21.19;50.03;97431.75;4970039;28;20456;-76
2021/07/31 06:03:02;;;;;;;5.33;2.43;;;23.90;50.30;;;21.35;50.99;97435.88;4973248;28;20532;-76
2021/07/31 06:05:29;;;;;;;2.00;1.80;;;23.60;51.20;;;20.83;50.44;97433.13;4974386;28;20822;-76
2021/07/31 06:07:56;;;;;;;5.93;2.40;;;23.10;50.40;;;20.72;50.33;97431.63;4969241;28;20442;-77
2021/07/31 06:10:23;;;;;;;4.73;2.00;;;22.70;50.90;;;20.69;51.49;97434.94;4971807;28;20450;-80
2021/07/31 06:12:50;;;;;;;5.50;1.90;;;22.50;51.60;;;20.34;50.71;97438.69;4970037;28;20556;-76
2021/07/31 06:15:18;;;;;;;5.97;2.17;;;22.20;50.70;;;20.71;50.72;97433.53;4967060;28;20457;-74
2021/07/31 06:17:45;;;;;;;6.63;2.40;;;22.60;51.30;;;20.31;51.29;97431.06;4970947;28;20477;-74
2021/07/31 06:20:14;;;;;;;4.67;2.07;;;22.40;51.40;;;19.72;51.87;97436.63;4958855;28;20449;-75
2021/07/31 06:22:41;;;;;;;3.83;2.10;;;21.40;51.40;;;19.12;54.09;97437.69;4972339;28;20457;-75
2021/07/31 06:25:09;;;;;;;3.90;2.47;;;20.50;52.30;;;19.27;54.90;97439.50;4967496;28;20461;-75
2021/07/31 06:27:36;;;;;;;4.17;1.80;;;20.20;53.60;;;19.32;53.77;97427.66;4957703;28;20463;-74
2021/07/31 06:30:05;;;;;;;4.70;2.00;;;20.30;53.20;;;18.92;53.68;97433.97;4963074;28;21048;-75
2021/07/31 06:32:33;;;;;;;2.83;1.93;;;19.90;52.50;;;18.74;52.83;97429.19;4967758;28;20495;-76
2021/07/31 06:35:00;;;;;;;3.10;1.80;;;19.70;52.20;;;19.13;52.99;97439.31;4961257;28;20492;-77
2021/07/31 06:37:27;;;;;;;3.27;1.50;;;19.90;52.70;;;19.44;52.37;97441.81;4963362;28;20459;-76
2021/07/31 06:39:55;;;;;;;4.40;1.60;;;20.20;52.60;;;19.37;50.96;97449.56;4962895;28;20992;-75
2021/07/31 06:42:22;;;;;;;3.43;1.70;;;20.30;51.70;;;19.39;51.27;97447.34;4946128;28;20461;-78
2021/07/31 06:44:49;;;;;;;2.57;1.43;;;20.30;51.90;;;19.35;51.10;97449.03;4964153;28;20508;-77
2021/07/31 06:47:16;;;;;;;2.70;1.57;;;20.30;51.60;;;19.08;51.75;97444.84;4949569;28;20938;-77
2021/07/31 06:49:44;;;;;;;2.30;1.57;;;20.00;51.70;;;19.24;51.87;97451.84;4942910;28;20497;-78
2021/07/31 06:52:14;;;;;;;4.20;2.13;;;20.00;52.10;;;19.57;51.09;97450.47;4960964;28;20544;-75
2021/07/31 06:54:41;;;;;;;5.60;2.13;;;20.30;52.20;;;19.56;50.97;97459.78;4962044;28;20450;-76
2021/07/31 06:57:09;;;;;;;3.30;1.60;;;20.30;51.90;;;19.52;50.37;97454.06;4953606;28;20993;-81
2021/07/31 06:59:36;;;;;;;3.20;1.40;;;20.40;51.30;;;19.14;50.34;97454.66;4951592;28;20472;-76
2021/07/31 07:02:04;;;;;;;2.70;1.80;;;20.10;51.00;;;19.11;50.66;97445.09;4985417;28;20453;-74
2021/07/31 07:04:31;;;;;;;5.13;1.83;;;20.00;51.20;;;19.18;50.31;97455.72;4958292;28;20476;-80
2021/07/31 07:07:00;;;;;;;3.20;1.60;;;20.00;51.20;;;19.28;50.75;97437.56;4953198;28;20560;-76
2021/07/31 07:09:27;;;;;;;4.30;2.03;;;20.20;51.40;;;19.36;50.19;97428.75;4966164;28;20453;-76
2021/07/31 07:11:56;;;;;;;3.90;1.70;;;20.30;51.50;;;19.60;49.99;97444.41;4970539;28;20457;-75
2021/07/31 07:14:23;;;;;;;3.80;1.97;;;20.40;51.40;;;19.88;49.96;97433.72;4967597;28;20469;-76
2021/07/31 07:16:50;;;;;;;2.10;1.60;;;20.60;51.60;;;19.36;50.00;97435.03;4953084;28;20807;-76
2021/07/31 07:19:17;;;;;;;3.60;1.60;;;20.30;51.00;;;19.27;49.44;97435.94;4966246;28;20475;-75
2021/07/31 07:21:44;;;;;;;3.33;1.80;;;20.30;50.70;;;19.17;50.26;97434.09;4966182;28;21158;-75
2021/07/31 07:24:13;;;;;;;4.03;1.53;;;20.00;51.00;;;18.94;50.67;97448.19;4980365;28;20576;-75
2021/07/31 07:26:39;;;;;;;3.70;1.80;;;19.90;51.00;;;19.18;50.60;97444.75;4970324;28;20457;-74
2021/07/31 07:29:06;;;;;;;5.17;1.90;;;19.90;51.50;;;19.39;50.44;97430.91;4972604;28;20459;-75
2021/07/31 07:31:33;;;;;;;2.83;1.67;;;20.10;51.40;;;19.38;50.65;97426.53;4973496;28;20485;-76
2021/07/31 07:34:00;;;;;;;2.37;1.50;;;20.20;51.40;;;19.14;50.33;97437.41;4965802;28;20581;-76
2021/07/31 07:36:27;;;;;;;3.50;2.43;;;20.00;50.90;;;19.59;49.77;97429.91;4960523;28;20815;-76
2021/07/31 07:38:54;;;;;;;3.10;1.97;;;20.30;51.30;;;19.87;49.95;97418.38;4971219;28;20545;-77
2021/07/31 07:41:23;;;;;;;4.50;1.80;;;20.50;51.70;;;20.05;48.54;97417.66;4967232;28;20454;-75
2021/07/31 07:43:50;;;;;;;4.87;1.80;;;20.80;51.10;;;19.97;48.78;97432.00;4957471;28;21070;-75
2021/07/31 07:46:18;;;;;;;3.40;2.00;;;20.80;50.80;;;19.79;48.20;97420.66;4966224;28;20484;-75
2021/07/31 07:48:47;;;;;;;4.13;1.60;;;20.70;50.40;;;20.01;48.38;97426.75;4971266;28;20455;-75
2021/07/31 07:51:15;;;;;;;1.90;1.33;;;20.70;50.60;;;19.84;48.62;97429.94;4957417;28;20458;-75
2021/07/31 07:53:44;;;;;;;3.90;1.93;;;20.70;50.40;;;19.44;49.55;97411.69;4973080;28;21112;-78
2021/07/31 07:56:11;;;;;;;4.07;1.80;;;20.40;50.90;;;19.79;49.40;97426.16;4973103;28;20454;-76
2021/07/31 07:58:39;;;;;;;4.43;2.00;;;20.50;51.40;;;20.26;48.79;97417.41;4972446;28;20473;-79
2021/07/31 08:01:10;;;;;;;2.77;1.60;;;20.90;51.30;;;20.55;47.90;97407.44;4960274;28;20484;-78
2021/07/31 08:03:37;;;;;;;2.83;2.00;;;21.30;51.10;;;20.71;48.14;97425.31;4960935;28;20481;-75
2021/07/31 08:06:05;;;;;;;3.37;1.70;;;21.40;51.10;;;20.50;48.22;97422.84;4965293;28;20534;-79
2021/07/31 08:08:32;;;;;;;2.87;1.83;;;21.40;50.60;;;20.67;48.29;97416.03;4972634;28;20453;-80
2021/07/31 08:10:59;;;;;;;4.80;2.00;;;21.50;51.10;;;20.58;47.35;97424.13;4969972;28;20467;-77
2021/07/31 08:13:29;;;;;;;3.23;1.90;;;21.50;50.30;;;20.24;47.47;97431.41;4982085;28;20536;-75
2021/07/31 08:15:57;;;;;;;6.10;2.10;;;21.20;50.10;;;20.13;47.39;97432.63;4980278;28;20453;-79
2021/07/31 08:18:24;;;;;;;6.00;1.90;;;21.00;50.00;;;20.31;47.43;97420.09;4969660;28;20569;-75
2021/07/31 08:20:51;;;;;;;2.63;1.40;;;21.10;50.50;;;20.41;47.48;97423.81;4965651;28;20544;-75
2021/07/31 08:23:18;;;;;;;2.53;1.80;;;21.20;50.20;;;20.57;47.18;97438.13;4961963;28;20525;-77
2021/07/31 08:25:48;;;;;;;5.20;1.60;;;21.40;50.30;;;20.43;46.84;97421.59;4969829;28;20473;-75
2021/07/31 08:28:15;;;;;;;4.27;1.80;;;21.20;49.90;;;20.74;46.84;97438.44;4973744;28;20453;-74
2021/07/31 08:30:42;;;;;;;2.03;1.63;;;21.50;50.20;;;20.91;46.27;97435.22;4966843;28;20502;-75
2021/07/31 08:33:10;;;;;;;6.47;1.93;;;21.70;49.90;;;21.13;46.37;97433.75;4963405;28;21316;-77
2021/07/31 08:35:37;;;;;;;4.23;1.80;;;21.90;50.10;;;21.43;45.45;97439.06;4965156;28;20468;-74
2021/07/31 08:38:04;;;;;;;3.90;1.53;;;22.10;50.00;;;21.47;45.40;97432.69;4961957;28;20497;-76
2021/07/31 08:40:36;;;;;;;4.10;1.80;;;22.20;49.80;;;21.60;44.38;97419.25;4970072;28;21075;-76
2021/07/31 08:43:05;;;;;;;3.20;1.60;;;22.50;49.70;;;21.23;45.04;97430.88;4974811;28;20446;-75
2021/07/31 08:45:33;;;;;;;4.53;1.37;;;22.00;49.10;;;21.01;45.08;97426.00;4968093;28;20545;-76
2021/07/31 08:48:02;;;;;;;2.40;1.67;;;21.90;49.10;;;20.80;45.38;97426.31;4969112;28;20437;-76
2021/07/31 08:50:32;;;;;;;6.20;1.43;;;21.60;49.20;;;21.04;45.39;97419.09;4981506;28;20933;-74
2021/07/31 08:52:59;;;;;;;6.87;1.83;;;21.60;49.40;;;20.80;45.45;97418.06;4973261;28;20973;-75
2021/07/31 08:55:26;;;;;;;4.37;1.80;;;21.60;49.10;;;21.09;44.93;97411.59;4975050;28;20509;-77
2021/07/31 08:57:53;;;;;;;2.20;1.70;;;21.80;49.30;;;21.33;45.08;97424.38;4970509;28;20489;-77
2021/07/31 09:00:21;;;;;;;6.03;2.43;;;22.10;49.50;;;21.57;44.53;97415.19;4959614;28;20576;-76
2021/07/31 09:02:49;;;;;;;2.00;1.70;;;22.30;49.80;;;21.91;44.22;97414.03;4964402;28;20446;-77
2021/07/31 09:05:32;;;;;;;4.97;1.70;;;22.60;49.50;;;21.12;43.92;97410.16;4967535;28;20524;-78
2021/07/31 09:08:03;;;;;;;3.57;1.50;;;22.00;48.20;;;21.69;42.87;97413.91;4969294;28;20453;-77
2021/07/31 09:10:33;;;;;;;2.00;1.37;;;22.40;48.50;;;20.79;43.99;97404.59;4970773;28;20556;-75
2021/07/31 09:13:02;;;;;;;4.60;1.60;;;21.80;48.10;;;20.91;44.70;97406.91;4973278;28;20476;-75
2021/07/31 09:15:38;;;;;;;2.07;1.50;;;21.80;48.70;;;21.03;44.92;97407.28;4960568;28;20539;-75
2021/07/31 09:18:29;;;;;;;3.70;1.90;;;21.80;49.10;;;21.53;44.59;97414.13;4968787;28;20462;-75
2021/07/31 09:21:12;;;;;;;2.73;1.50;;;22.20;49.40;;;21.47;44.45;97407.94;4973727;28;20520;-75
2021/07/31 09:23:45;;;;;;;3.90;1.40;;;22.30;48.90;;;21.91;43.34;97414.03;4968226;28;20444;-75
2021/07/31 09:26:16;;;;;;;4.10;1.50;;;22.70;48.90;;;21.07;44.45;97408.31;4976090;28;20483;-74
2021/07/31 09:28:45;;;;;;;6.73;2.30;;;22.10;48.50;;;20.99;44.78;97416.41;4969074;28;20469;-75
2021/07/31 09:31:17;;;;;;;4.20;1.67;;;21.80;48.90;;;21.27;44.06;97413.78;4967529;28;20485;-75
2021/07/31 09:33:47;;;;;;;4.33;2.00;;;22.00;48.70;;;21.56;43.84;97413.56;4967180;28;20454;-78
2021/07/31 09:36:16;;;;;;;3.67;1.97;;;22.30;48.90;;;21.27;44.11;97411.03;4975632;28;20462;-76
2021/07/31 09:38:46;;;;;;;2.50;1.60;;;22.20;48.50;;;21.39;44.47;97425.09;4969253;28;20453;-77
2021/07/31 09:41:36;;;;;;;3.93;1.63;;;22.20;48.90;;;20.89;45.43;97418.22;4983493;28;20474;-75
2021/07/31 09:44:13;;;;;;;3.20;1.60;;;21.80;49.00;;;21.20;44.16;97422.41;4984763;28;20555;-75
2021/07/31 09:46:45;;;;;;;4.43;2.00;;;21.90;49.00;;;21.14;44.51;97418.91;4976028;28;20488;-77
2021/07/31 09:49:14;;;;;;;2.70;1.57;;;21.90;48.70;;;20.81;44.65;97416.13;4974889;28;20527;-75
2021/07/31 09:51:45;;;;;;;2.67;1.83;;;21.70;48.70;;;21.17;44.31;97418.34;4974560;28;20476;-76
2021/07/31 09:54:14;;;;;;;4.50;1.40;;;21.80;48.80;;;21.71;43.29;97409.72;4973629;28;20456;-78
2021/07/31 09:56:45;;;;;;;4.70;1.90;;;22.20;48.80;;;22.38;42.67;97407.59;4969591;28;20536;-75
2021/07/31 09:59:14;;;;;;;4.70;1.83;;;22.90;49.00;;;22.69;41.80;97414.41;4969084;28;20480;-83
2021/07/31 10:01:47;;;;;;;3.83;1.70;;;23.40;48.40;;;21.79;42.73;97414.53;4974130;28;20461;-77
2021/07/31 10:04:15;;;;;;;4.40;1.87;;;22.80;48.00;;;21.75;42.79;97402.50;4968975;28;20449;-77
2021/07/31 10:06:44;;;;;;;3.47;1.60;;;22.70;48.20;;;22.27;42.45;97396.00;4970671;28;20980;-78
2021/07/31 10:09:12;;;;;;;2.90;1.50;;;22.80;48.60;;;22.86;41.58;97410.97;4971403;28;20458;-78
2021/07/31 10:11:41;;;;;;;2.90;1.50;;;23.50;48.60;;;23.04;41.07;97403.66;4970226;28;20445;-79
2021/07/31 10:14:10;;;;;;;5.50;1.80;;;23.70;48.10;;;21.86;42.74;97413.31;4974438;28;20536;-77
2021/07/31 10:16:39;;;;;;;2.00;1.70;;;22.90;48.10;;;21.58;43.36;97421.47;4960979;28;20616;-77
2021/07/31 10:19:09;;;;;;;2.47;1.70;;;22.40;48.10;;;21.70;43.32;97408.09;4974648;28;20470;-77
2021/07/31 10:21:49;;;;;;;2.53;1.63;;;22.40;48.40;;;21.90;41.85;97411.56;4974264;28;20487;-76
2021/07/31 10:24:17;;;;;;;3.50;1.40;;;22.60;47.70;;;21.98;41.92;97388.88;4973235;28;20449;-78